createdAt,value
2023-03-30T00:01:18.995Z,100174.81
2023-03-30T00:03:50.220Z,100177.34
2023-03-30T00:06:23.604Z,100177.78
2023-03-30T00:09:01.821Z,100184.00
2023-03-30T00:11:34.620Z,100186.00
2023-03-30T00:14:40.002Z,100196.25
2023-03-30T00:17:16.719Z,100192.06
2023-03-30T00:19:49.586Z,100197.50
2023-03-30T00:22:21.470Z,100187.59
2023-03-30T00:25:21.644Z,100194.09
2023-03-30T00:28:08.206Z,100199.41
2023-03-30T00:30:38.902Z,100204.94
2023-03-30T00:33:09.513Z,100211.19
2023-03-30T00:35:39.198Z,100211.63
2023-03-30T00:38:16.741Z,100225.56
2023-03-30T00:40:54.943Z,100220.84
2023-03-30T00:43:23.953Z,100235.75
2023-03-30T00:45:53.963Z,100242.59
2023-03-30T00:48:35.002Z,100246.91
2023-03-30T00:51:11.097Z,100258.72
2023-03-30T00:53:53.718Z,100256.44
2023-03-30T00:56:27.680Z,100266.78
2023-03-30T00:58:58.914Z,100271.31
2023-03-30T01:01:31.043Z,100270.53
2023-03-30T01:04:04.194Z,100277.53
2023-03-30T01:06:35.937Z,100290.13
2023-03-30T01:09:05.388Z,100286.78
2023-03-30T01:11:34.247Z,100281.84
2023-03-30T01:14:07.307Z,100279.94
2023-03-30T01:16:47.425Z,100289.91
2023-03-30T01:19:39.032Z,100282.47
2023-03-30T01:22:31.831Z,100283.69
2023-03-30T01:25:21.502Z,100293.47
2023-03-30T01:28:06.887Z,100284.56
2023-03-30T01:30:54.512Z,100281.91
2023-03-30T01:33:34.524Z,100286.88
2023-03-30T01:36:31.973Z,100288.09
2023-03-30T01:39:15.026Z,100294.72
2023-03-30T01:41:47.372Z,100290.56
2023-03-30T01:45:01.064Z,100293.28
2023-03-30T01:48:24.036Z,100292.41
2023-03-30T01:51:01.418Z,100296.78
2023-03-30T01:53:32.385Z,100303.34
2023-03-30T01:56:05.119Z,100301.66
2023-03-30T01:58:47.365Z,100296.72
2023-03-30T02:01:21.998Z,100302.91
2023-03-30T02:04:05.538Z,100304.78
2023-03-30T02:06:45.501Z,100296.72
2023-03-30T02:09:19.179Z,100290.47
2023-03-30T02:11:54.580Z,100289.09
2023-03-30T02:14:31.705Z,100285.13
2023-03-30T02:17:13.309Z,100290.69
2023-03-30T02:19:46.734Z,100292.63
2023-03-30T02:22:19.249Z,100291.78
2023-03-30T02:24:52.405Z,100286.97
2023-03-30T02:27:24.078Z,100295.00
2023-03-30T02:29:55.238Z,100295.94
2023-03-30T02:32:33.613Z,100295.03
2023-03-30T02:35:19.368Z,100305.69
2023-03-30T02:38:04.455Z,100311.06
2023-03-30T02:40:55.442Z,100305.72
2023-03-30T02:43:36.001Z,100307.66
2023-03-30T02:46:31.963Z,100309.81
2023-03-30T02:49:42.608Z,100315.19
2023-03-30T02:52:49.302Z,100317.09
2023-03-30T02:55:43.892Z,100324.66
2023-03-30T02:58:54.724Z,100317.66
2023-03-30T03:01:42.870Z,100317.81
2023-03-30T03:04:20.218Z,100323.63
2023-03-30T03:07:07.964Z,100319.28
2023-03-30T03:09:38.953Z,100321.47
2023-03-30T03:12:09.839Z,100321.19
2023-03-30T03:14:40.885Z,100317.31
2023-03-30T03:17:10.279Z,100324.66
2023-03-30T03:19:45.439Z,100323.81
2023-03-30T03:22:17.235Z,100330.25
2023-03-30T03:24:47.366Z,100337.66
2023-03-30T03:27:52.201Z,100332.47
2023-03-30T03:30:25.777Z,100339.59
2023-03-30T03:33:03.700Z,100345.22
2023-03-30T03:35:34.342Z,100354.19
2023-03-30T03:38:08.500Z,100348.38
2023-03-30T03:40:39.223Z,100354.41
2023-03-30T03:43:10.666Z,100358.97
2023-03-30T03:45:40.072Z,100362.56
2023-03-30T03:48:10.120Z,100371.53
2023-03-30T03:50:46.526Z,100385.31
2023-03-30T03:53:16.163Z,100404.44
2023-03-30T03:55:47.250Z,100411.38
2023-03-30T03:58:18.694Z,100415.69
2023-03-30T04:00:48.056Z,100431.69
2023-03-30T04:03:18.680Z,100433.59
2023-03-30T04:05:47.653Z,100449.13
2023-03-30T04:08:18.713Z,100461.44
2023-03-30T04:10:48.011Z,100472.84
2023-03-30T04:13:19.549Z,100471.66
2023-03-30T04:16:08.593Z,100482.81
2023-03-30T04:18:53.360Z,100492.22
2023-03-30T04:21:38.315Z,100498.34
2023-03-30T04:24:19.290Z,100522.41
2023-03-30T04:26:59.282Z,100528.84
2023-03-30T04:29:46.838Z,100525.72
2023-03-30T04:33:44.192Z,100516.88
2023-03-30T04:36:33.767Z,100538.56
2023-03-30T04:39:31.060Z,100525.16
2023-03-30T04:42:20.774Z,100540.75
2023-03-30T04:45:11.113Z,100538.41
2023-03-30T04:48:11.981Z,100540.78
2023-03-30T04:51:01.830Z,100550.13
2023-03-30T04:53:49.661Z,100560.47
2023-03-30T04:56:59.150Z,100573.00
2023-03-30T05:00:09.206Z,100561.28
2023-03-30T05:02:59.809Z,100557.59
2023-03-30T05:05:47.375Z,100555.63
2023-03-30T05:08:45.489Z,100559.63
2023-03-30T05:11:21.699Z,100566.47
2023-03-30T05:14:04.515Z,100584.88
2023-03-30T05:16:49.549Z,100610.91
2023-03-30T05:19:22.537Z,100606.22
2023-03-30T05:22:18.063Z,100601.56
2023-03-30T05:24:59.783Z,100601.91
2023-03-30T05:27:52.696Z,100598.22
2023-03-30T05:30:42.940Z,100608.25
2023-03-30T05:33:50.819Z,100601.25
2023-03-30T05:36:20.064Z,100619.25
2023-03-30T05:39:08.345Z,100631.94
2023-03-30T05:42:04.785Z,100639.22
2023-03-30T05:44:54.457Z,100643.53
2023-03-30T05:47:43.732Z,100652.22
2023-03-30T05:50:43.236Z,100643.72
2023-03-30T05:53:22.469Z,100646.03
2023-03-30T05:56:10.964Z,100660.59
2023-03-30T05:58:58.262Z,100670.97
2023-03-30T06:01:49.766Z,100672.09
2023-03-30T06:04:19.697Z,100670.06
2023-03-30T06:06:49.214Z,100684.75
2023-03-30T06:09:18.175Z,100680.91
2023-03-30T06:11:47.497Z,100690.59
2023-03-30T06:14:21.446Z,100683.00
2023-03-30T06:17:14.690Z,100689.22
2023-03-30T06:19:45.492Z,100692.53
2023-03-30T06:22:14.574Z,100689.59
2023-03-30T06:25:07.682Z,100684.94
2023-03-30T06:27:38.650Z,100703.25
2023-03-30T06:30:10.954Z,100698.56
2023-03-30T06:36:44.203Z,100707.22
2023-03-30T06:39:17.974Z,100708.75
2023-03-30T06:41:47.469Z,100711.31
2023-03-30T06:44:35.208Z,100716.38
2023-03-30T06:47:27.740Z,100720.91
2023-03-30T06:50:46.710Z,100716.22
2023-03-30T06:53:27.417Z,100720.59
2023-03-30T06:56:00.468Z,100720.16
2023-03-30T06:58:32.374Z,100725.13
2023-03-30T07:01:16.637Z,100726.78
2023-03-30T07:04:06.174Z,100735.69
2023-03-30T07:06:59.150Z,100726.19
2023-03-30T07:09:30.624Z,100729.34
2023-03-30T07:12:01.177Z,100730.34
2023-03-30T07:14:31.149Z,100720.53
2023-03-30T07:17:00.872Z,100728.72
2023-03-30T07:19:31.668Z,100742.19
2023-03-30T07:22:03.362Z,100756.38
2023-03-30T07:24:34.937Z,100753.72
2023-03-30T07:27:03.687Z,100755.38
2023-03-30T07:29:33.567Z,100762.53
2023-03-30T07:32:03.202Z,100766.53
2023-03-30T07:34:34.588Z,100764.16
2023-03-30T07:37:03.697Z,100760.97
2023-03-30T07:39:34.989Z,100763.06
2023-03-30T07:42:08.833Z,100767.00
2023-03-30T07:44:37.965Z,100779.09
2023-03-30T07:47:09.768Z,100781.19
2023-03-30T07:49:40.617Z,100783.56
2023-03-30T07:52:10.752Z,100792.72
2023-03-30T07:54:55.210Z,100789.06
2023-03-30T07:57:32.896Z,100798.03
2023-03-30T08:00:02.699Z,100804.91
2023-03-30T08:02:45.808Z,100808.56
2023-03-30T08:05:19.849Z,100822.50
2023-03-30T08:08:04.290Z,100831.19
2023-03-30T08:10:36.038Z,100834.59
2023-03-30T08:13:07.768Z,100836.47
2023-03-30T08:15:40.557Z,100852.34
2023-03-30T08:18:09.597Z,100855.34
2023-03-30T08:20:39.403Z,100856.72
2023-03-30T08:23:11.022Z,100857.28
2023-03-30T08:25:39.707Z,100855.53
2023-03-30T08:28:09.615Z,100867.59
2023-03-30T08:30:38.826Z,100865.44
2023-03-30T08:33:09.618Z,100871.75
2023-03-30T08:35:40.156Z,100879.38
2023-03-30T08:38:10.602Z,100876.72
2023-03-30T08:40:43.369Z,100888.03
2023-03-30T08:43:12.297Z,100898.84
2023-03-30T08:45:43.431Z,100895.91
2023-03-30T08:48:21.613Z,100898.56
2023-03-30T08:50:55.954Z,100900.94
2023-03-30T08:53:25.310Z,100913.38
2023-03-30T08:56:10.973Z,100909.66
2023-03-30T08:58:45.580Z,100922.91
2023-03-30T09:01:26.629Z,100922.34
2023-03-30T09:03:55.306Z,100924.59
2023-03-30T09:06:31.791Z,100929.91
2023-03-30T09:09:02.216Z,100928.81
2023-03-30T09:11:37.803Z,100938.50
2023-03-30T09:14:13.554Z,100942.22
2023-03-30T09:16:56.870Z,100953.53
2023-03-30T09:19:58.118Z,100947.31
2023-03-30T09:22:34.729Z,100959.13
2023-03-30T09:25:03.439Z,100968.88
2023-03-30T09:28:13.327Z,100976.13
2023-03-30T09:30:46.762Z,100983.38
2023-03-30T09:33:45.269Z,100977.22
2023-03-30T09:36:22.892Z,100986.16
2023-03-30T09:38:53.532Z,100993.53
2023-03-30T09:41:58.945Z,100996.53
2023-03-30T09:44:38.239Z,101004.63
2023-03-30T09:47:25.645Z,101012.34
2023-03-30T09:50:10.521Z,101009.03
2023-03-30T09:52:41.888Z,101016.41
2023-03-30T09:55:29.423Z,101023.00
2023-03-30T09:58:30.576Z,101034.88
2023-03-30T10:01:13.363Z,101042.38
2023-03-30T10:03:45.339Z,101045.69
2023-03-30T10:06:19.338Z,101053.56
2023-03-30T10:08:54.653Z,101068.22
2023-03-30T10:11:31.882Z,101069.63
2023-03-30T10:14:01.716Z,101073.63
2023-03-30T10:16:35.564Z,101084.53
2023-03-30T10:19:17.561Z,101084.16
2023-03-30T10:21:47.703Z,101084.09
2023-03-30T10:24:16.303Z,101091.09
2023-03-30T10:26:50.375Z,101096.44
2023-03-30T10:29:20.377Z,101084.03
2023-03-30T10:31:55.561Z,101097.41
2023-03-30T10:34:31.173Z,101093.59
2023-03-30T10:37:01.374Z,101090.75
2023-03-30T10:39:36.075Z,101102.78
2023-03-30T10:42:11.134Z,101102.19
2023-03-30T10:44:50.940Z,101110.41
2023-03-30T10:47:32.061Z,101118.34
2023-03-30T10:50:33.927Z,101134.38
2023-03-30T10:53:28.044Z,101131.72
2023-03-30T10:56:13.448Z,101141.00
2023-03-30T10:58:54.728Z,101150.28
2023-03-30T11:01:27.312Z,101150.94
2023-03-30T11:04:16.202Z,101158.94
2023-03-30T11:06:51.296Z,101166.59
2023-03-30T11:09:29.759Z,101167.41
2023-03-30T11:12:15.730Z,101183.56
2023-03-30T11:14:56.650Z,101194.28
2023-03-30T11:17:32.309Z,101196.66
2023-03-30T11:20:19.187Z,101205.59
2023-03-30T11:23:07.334Z,101205.78
2023-03-30T11:25:47.127Z,101213.19
2023-03-30T11:28:31.532Z,101225.28
2023-03-30T11:31:14.666Z,101222.97
2023-03-30T11:33:51.668Z,101228.50
2023-03-30T11:36:31.841Z,101227.22
2023-03-30T11:39:01.546Z,101229.06
2023-03-30T11:41:51.920Z,101229.16
2023-03-30T11:44:21.506Z,101240.28
2023-03-30T11:47:15.854Z,101237.09
2023-03-30T11:50:10.601Z,101253.88
2023-03-30T11:53:00.108Z,101248.31
2023-03-30T11:55:57.367Z,101253.03
2023-03-30T11:58:33.413Z,101248.81
2023-03-30T12:01:11.467Z,101262.34
2023-03-30T12:04:07.574Z,101257.31
2023-03-30T12:06:42.632Z,101263.03
2023-03-30T12:09:20.659Z,101268.84
2023-03-30T12:12:16.293Z,101273.97
2023-03-30T12:14:55.068Z,101275.06
2023-03-30T12:17:46.558Z,101276.88
2023-03-30T12:21:01.160Z,101276.72
2023-03-30T12:23:39.740Z,101282.28
2023-03-30T12:26:40.325Z,101287.84
2023-03-30T12:29:44.386Z,101294.84
2023-03-30T12:32:19.430Z,101298.59
2023-03-30T12:34:48.048Z,101299.66
2023-03-30T12:37:23.163Z,101293.59
2023-03-30T12:40:11.233Z,101295.50
2023-03-30T12:42:56.596Z,101305.75
2023-03-30T12:45:36.054Z,101301.00
2023-03-30T12:48:43.918Z,101309.94
2023-03-30T12:51:22.687Z,101310.41
2023-03-30T12:54:03.746Z,101310.03
2023-03-30T12:57:01.475Z,101315.88
2023-03-30T12:59:51.734Z,101310.25
2023-03-30T13:02:43.032Z,101314.47
2023-03-30T13:05:32.861Z,101313.75
2023-03-30T13:08:19.202Z,101310.78
2023-03-30T13:10:48.161Z,101315.81
2023-03-30T13:13:43.760Z,101312.75
2023-03-30T13:16:14.219Z,101311.50
2023-03-30T13:18:54.566Z,101314.13
2023-03-30T13:21:27.233Z,101312.06
2023-03-30T13:24:06.939Z,101316.88
2023-03-30T13:26:43.720Z,101320.53
2023-03-30T13:29:17.915Z,101321.53
2023-03-30T13:32:01.252Z,101329.22
2023-03-30T13:35:06.247Z,101327.25
2023-03-30T13:38:01.375Z,101331.19
2023-03-30T13:40:48.510Z,101329.34
2023-03-30T13:43:36.395Z,101331.47
2023-03-30T13:46:29.574Z,101324.19
2023-03-30T13:49:23.443Z,101331.72
2023-03-30T13:51:53.826Z,101327.00
2023-03-30T13:54:29.958Z,101333.84
2023-03-30T13:57:09.523Z,101333.59
2023-03-30T13:59:43.571Z,101329.66
2023-03-30T14:02:44.602Z,101337.19
2023-03-30T14:05:41.980Z,101335.81
2023-03-30T14:08:13.563Z,101340.09
2023-03-30T14:10:47.224Z,101347.34
2023-03-30T14:13:16.429Z,101339.44
2023-03-30T14:15:51.922Z,101348.28
2023-03-30T14:18:27.151Z,101352.78
2023-03-30T14:21:04.052Z,101341.41
2023-03-30T14:23:37.712Z,101340.97
2023-03-30T14:26:13.692Z,101338.28
2023-03-30T14:28:45.820Z,101339.41
2023-03-30T14:31:24.695Z,101356.97
2023-03-30T14:34:00.774Z,101360.09
2023-03-30T14:36:30.894Z,101359.06
2023-03-30T14:39:33.801Z,101355.09
2023-03-30T14:42:15.097Z,101354.59
2023-03-30T14:44:45.822Z,101359.78
2023-03-30T14:47:16.655Z,101355.13
2023-03-30T14:49:48.382Z,101355.84
2023-03-30T14:52:23.345Z,101356.50
2023-03-30T14:55:06.690Z,101361.41
2023-03-30T14:57:40.186Z,101352.19
2023-03-30T15:00:19.172Z,101354.41
2023-03-30T15:02:53.076Z,101348.41
2023-03-30T15:05:25.160Z,101346.41
2023-03-30T15:07:54.794Z,101352.00
2023-03-30T15:10:34.882Z,101354.34
2023-03-30T15:13:05.702Z,101349.59
2023-03-30T15:15:35.027Z,101345.09
2023-03-30T15:18:05.738Z,101351.75
2023-03-30T15:20:35.262Z,101351.94
2023-03-30T15:23:05.404Z,101355.13
2023-03-30T15:25:36.081Z,101356.97
2023-03-30T15:28:14.711Z,101358.28
2023-03-30T15:30:45.288Z,101350.81
2023-03-30T15:33:32.242Z,101346.50
2023-03-30T15:36:18.086Z,101349.41
2023-03-30T15:38:52.348Z,101336.38
2023-03-30T15:41:57.505Z,101346.59
2023-03-30T15:44:27.894Z,101334.28
2023-03-30T15:46:59.403Z,101335.25
2023-03-30T15:49:49.183Z,101330.97
2023-03-30T15:52:26.161Z,101336.75
2023-03-30T15:54:57.761Z,101341.69
2023-03-30T15:57:32.340Z,101340.47
2023-03-30T16:03:04.667Z,101343.38
2023-03-30T16:05:35.644Z,101325.59
2023-03-30T16:08:06.067Z,101328.28
2023-03-30T16:10:37.840Z,101327.88
2023-03-30T16:13:07.721Z,101332.66
2023-03-30T16:15:36.377Z,101325.44
2023-03-30T16:18:06.920Z,101327.09
2023-03-30T16:20:35.913Z,101328.06
2023-03-30T16:23:05.885Z,101323.66
2023-03-30T16:25:44.909Z,101323.38
2023-03-30T16:28:17.903Z,101321.59
2023-03-30T16:30:51.087Z,101320.22
2023-03-30T16:33:19.973Z,101318.09
2023-03-30T16:35:48.310Z,101312.34
2023-03-30T16:38:19.247Z,101301.13
2023-03-30T16:40:54.029Z,101301.81
2023-03-30T16:43:22.756Z,101300.91
2023-03-30T16:45:51.962Z,101311.56
2023-03-30T16:48:22.846Z,101298.34
2023-03-30T16:50:55.173Z,101305.50
2023-03-30T16:53:24.677Z,101302.00
2023-03-30T16:55:54.422Z,101309.03
2023-03-30T16:58:24.174Z,101303.25
2023-03-30T17:01:43.547Z,101302.78
2023-03-30T17:04:13.532Z,101296.03
2023-03-30T17:06:43.306Z,101305.06
2023-03-30T17:09:16.109Z,101292.28
2023-03-30T17:12:12.744Z,101276.25
2023-03-30T17:14:43.070Z,101286.88
2023-03-30T17:17:12.422Z,101288.88
2023-03-30T17:19:42.387Z,101289.25
2023-03-30T17:22:11.728Z,101283.06
2023-03-30T17:24:40.346Z,101274.72
2023-03-30T17:27:11.290Z,101279.53
2023-03-30T17:29:45.470Z,101276.53
2023-03-30T17:32:15.102Z,101278.88
2023-03-30T17:34:44.493Z,101268.97
2023-03-30T17:37:39.967Z,101274.22
2023-03-30T17:40:31.633Z,101263.97
2023-03-30T17:43:11.576Z,101259.47
2023-03-30T17:45:57.482Z,101258.25
2023-03-30T17:48:28.167Z,101258.47
2023-03-30T17:51:01.559Z,101255.59
2023-03-30T17:53:32.470Z,101258.53
2023-03-30T17:56:03.086Z,101244.25
2023-03-30T17:58:36.343Z,101239.50
2023-03-30T18:01:12.723Z,101236.03
2023-03-30T18:03:43.497Z,101229.47
2023-03-30T18:06:16.350Z,101231.75
2023-03-30T18:08:54.424Z,101229.44
2023-03-30T18:11:23.818Z,101215.84
2023-03-30T18:13:53.639Z,101215.69
2023-03-30T18:16:24.865Z,101202.28
2023-03-30T18:18:53.831Z,101192.59
2023-03-30T18:21:22.559Z,101185.53
2023-03-30T18:23:51.750Z,101186.53
2023-03-30T18:26:22.041Z,101188.06
2023-03-30T18:28:51.965Z,101191.22
2023-03-30T18:31:21.987Z,101191.91
2023-03-30T18:33:53.260Z,101187.72
2023-03-30T18:36:23.439Z,101182.19
2023-03-30T18:38:55.626Z,101171.31
2023-03-30T18:41:24.000Z,101161.78
2023-03-30T18:43:53.802Z,101157.75
2023-03-30T18:46:23.032Z,101154.22
2023-03-30T18:48:54.782Z,101148.34
2023-03-30T18:51:23.749Z,101160.06
2023-03-30T18:53:52.141Z,101154.00
2023-03-30T18:56:21.812Z,101155.94
2023-03-30T18:58:51.441Z,101154.13
2023-03-30T19:01:22.889Z,101149.56
2023-03-30T19:03:51.688Z,101131.06
2023-03-30T19:06:36.462Z,101139.41
2023-03-30T19:09:07.310Z,101133.31
2023-03-30T19:11:36.142Z,101124.88
2023-03-30T19:14:06.073Z,101123.59
2023-03-30T19:16:35.876Z,101135.97
2023-03-30T19:19:04.462Z,101130.97
2023-03-30T19:21:33.756Z,101129.59
2023-03-30T19:24:02.772Z,101118.50
2023-03-30T19:26:32.629Z,101117.84
2023-03-30T19:29:01.849Z,101116.34
2023-03-30T19:31:32.685Z,101118.69
2023-03-30T19:34:01.898Z,101110.00
2023-03-30T19:36:32.922Z,101118.53
2023-03-30T19:39:02.302Z,101112.16
2023-03-30T19:41:33.496Z,101116.13
2023-03-30T19:44:02.525Z,101115.00
2023-03-30T19:46:33.981Z,101119.59
2023-03-30T19:49:03.890Z,101112.13
2023-03-30T19:51:35.823Z,101102.22
2023-03-30T19:54:04.463Z,101104.88
2023-03-30T19:56:34.556Z,101117.78
2023-03-30T19:59:04.393Z,101110.03
2023-03-30T20:01:35.245Z,101106.63
2023-03-30T20:04:04.481Z,101108.81
2023-03-30T20:06:36.366Z,101102.63
2023-03-30T20:09:30.183Z,101099.88
2023-03-30T20:12:01.839Z,101082.16
2023-03-30T20:14:32.786Z,101089.25
2023-03-30T20:17:03.090Z,101093.91
2023-03-30T20:19:32.178Z,101090.41
2023-03-30T20:22:01.563Z,101100.00
2023-03-30T20:24:34.378Z,101086.47
2023-03-30T20:27:03.421Z,101090.09
2023-03-30T20:29:32.383Z,101081.97
2023-03-30T20:32:02.354Z,101087.94
2023-03-30T20:34:35.282Z,101086.59
2023-03-30T20:37:03.988Z,101098.63
2023-03-30T20:39:40.572Z,101089.09
2023-03-30T20:42:12.152Z,101086.06
2023-03-30T20:45:18.501Z,101079.19
2023-03-30T20:48:42.904Z,101075.94
2023-03-30T20:50:54.188Z,101073.00
2023-03-30T20:53:24.194Z,101064.69
2023-03-30T20:56:38.066Z,101070.72
2023-03-30T20:59:32.289Z,101055.19
2023-03-30T21:02:06.977Z,101062.03
2023-03-30T21:05:06.167Z,101072.78
2023-03-30T21:11:27.994Z,101068.72
2023-03-30T21:14:17.507Z,101054.66
2023-03-30T21:19:52.781Z,101056.16
2023-03-30T21:22:24.830Z,101052.81
2023-03-30T21:25:03.660Z,101048.84
2023-03-30T21:27:39.597Z,101047.97
2023-03-30T21:31:04.805Z,101062.97
2023-03-30T21:33:40.838Z,101044.28
2023-03-30T21:36:19.852Z,101045.81
2023-03-30T21:38:48.388Z,101042.09
2023-03-30T21:41:24.744Z,101038.09
2023-03-30T21:43:54.586Z,101033.41
2023-03-30T21:46:26.979Z,101036.94
2023-03-30T21:48:56.224Z,101035.59
2023-03-30T21:51:28.947Z,101042.78
2023-03-30T21:54:02.205Z,101036.06
2023-03-30T21:56:32.457Z,101039.34
2023-03-30T21:59:02.671Z,101045.59
2023-03-30T22:01:31.928Z,101044.34
2023-03-30T22:04:04.718Z,101045.75
2023-03-30T22:06:35.688Z,101036.00
2023-03-30T22:09:04.167Z,101039.31
2023-03-30T22:11:34.210Z,101043.91
2023-03-30T22:14:03.881Z,101043.38
2023-03-30T22:16:34.432Z,101043.41
2023-03-30T22:19:05.615Z,101049.34
2023-03-30T22:21:38.528Z,101039.00
2023-03-30T22:24:08.972Z,101037.56
2023-03-30T22:26:38.622Z,101045.38
2023-03-30T22:29:08.967Z,101047.06
2023-03-30T22:31:39.433Z,101048.22
2023-03-30T22:34:10.346Z,101042.41
2023-03-30T22:36:39.928Z,101044.16
2023-03-30T22:39:10.116Z,101052.44
2023-03-30T22:41:39.619Z,101059.56
2023-03-30T22:44:08.183Z,101056.50
2023-03-30T22:46:39.660Z,101062.38
2023-03-30T22:49:08.525Z,101067.78
2023-03-30T22:51:52.551Z,101062.38
2023-03-30T22:54:22.554Z,101069.72
2023-03-30T22:56:51.561Z,101059.22
2023-03-30T22:59:22.351Z,101061.69
2023-03-30T23:01:52.038Z,101054.16
2023-03-30T23:04:22.640Z,101056.56
2023-03-30T23:06:51.852Z,101060.22
2023-03-30T23:09:22.515Z,101051.38
2023-03-30T23:11:51.893Z,101059.13
2023-03-30T23:14:21.313Z,101054.03
2023-03-30T23:16:52.550Z,101050.22
2023-03-30T23:19:26.003Z,101045.84
2023-03-30T23:21:55.170Z,101048.91
2023-03-30T23:24:24.213Z,101053.03
2023-03-30T23:26:53.821Z,101050.69
2023-03-30T23:29:23.825Z,101052.91
2023-03-30T23:31:54.095Z,101062.91
2023-03-30T23:34:24.260Z,101068.25
2023-03-30T23:37:00.571Z,101067.63
2023-03-30T23:39:33.915Z,101070.66
2023-03-30T23:42:02.923Z,101066.63
2023-03-30T23:44:32.084Z,101058.78
2023-03-30T23:47:01.922Z,101059.41
2023-03-30T23:49:32.331Z,101068.91
2023-03-30T23:52:05.600Z,101066.91
2023-03-30T23:54:40.034Z,101058.03
2023-03-30T23:57:41.578Z,101060.72
